Nearby METAR Reports

 

KOZR - Ozark/Cairns Aaf, Alabama, USA
Distance from station: SSW 2mi, 3km
Updated: Tue, 17-Oct-2017 4:56pm CDT
Clear
Clear
 Wind from NNE
Wind: NNE 12 mph , 19 km/h
Temperature: 72°F , 22°C
Dew Point: 45°F , 7°C
Humidity: 38%
Barometer: 30.15 inHg , 1021 hPa
Clouds: Clear
Visibility: 10 miles , 16 km
2017/10/17 21:56 KOZR 172156Z AUTO 03010KT 10SM CLR 22/07 A3015 RMK AO2 SLP211 T02240070
KLOR - Lowe Ahp/Ft. Ruc, Alabama, USA
Distance from station: NW 4mi, 6km
Updated: Tue, 17-Oct-2017 4:58pm CDT
Clear
Clear
 Wind from NNE
Wind: NNE 6 mph , 9 km/h
Temperature: 72°F , 22°C
Dew Point: 46°F , 8°C
Humidity: 41%
Barometer: 30.15 inHg , 1021 hPa
Clouds: Clear
Visibility: 9 miles , 14 km
2017/10/17 21:58 KLOR 172158Z AUTO 03005KT 9SM CLR 22/08 A3015 RMK AO2 SLP192 T02170078
 
KHEY - Ft Rucker/Hanche, Alabama, USA
Distance from station: NE 4mi, 7km
Updated: Tue, 17-Oct-2017 4:58pm CDT
Clear
Clear
 Wind from NE
Wind: NE 9 mph , 15 km/h
Temperature: 73°F , 23°C
Dew Point: 43°F , 6°C
Humidity: 33%
Barometer: 30.15 inHg , 1021 hPa
Clouds: Clear
Visibility: 10 miles , 16 km
2017/10/17 21:58 KHEY 172158Z AUTO 05008KT 10SM CLR 23/06 A3015 RMK AO2 SLP211 T02250057 $
KSXS - Ft Rucker/Shell, Alabama, USA
Distance from station: WNW 9mi, 15km
Updated: Tue, 17-Oct-2017 4:58pm CDT
Clear
Clear
 Wind from ENE
Wind: ENE 9 mph , 15 km/h
Temperature: 72°F , 22°C
Dew Point: 43°F , 6°C
Humidity: 36%
Barometer: 30.16 inHg , 1021.3 hPa
Clouds: Clear
Visibility: 9 miles , 14 km
2017/10/17 21:58 KSXS 172158Z AUTO 06008KT 9SM CLR 22/06 A3016 RMK AO2 SLP214 T02150064 $
 
KEDN - Enterprise, Alabama, USA
Distance from station: W 11mi, 18km
Updated: Tue, 17-Oct-2017 5:15pm CDT
Clear
Clear
 Wind from NNE
Wind: NNE 8 mph , 13 km/h
Temperature: 70°F , 21°C
Dew Point: 46°F , 8°C
Humidity: 43%
Barometer: 30.16 inHg , 1021.3 hPa
Clouds: Clear
Visibility: 10 miles , 16 km
2017/10/17 22:15 KEDN 172215Z AUTO 02007KT 10SM CLR 21/08 A3016 RMK AO2 T02120082
KDHN - Dothan, Alabama, USA
Distance from station: E 15mi, 24km
Updated: Tue, 17-Oct-2017 4:53pm CDT
Clear
Clear
 Wind from NNE
Wind: NNE 10 mph , 17 km/h
Temperature: 73°F , 23°C
Dew Point: 43°F , 6°C
Humidity: 33%
Barometer: 30.18 inHg , 1022 hPa
Clouds: Clear
Visibility: 10 miles , 16 km
2017/10/17 21:53 KDHN 172153Z 03009KT 10SM CLR 23/06 A3018 RMK AO2 SLP216 T02280056
 
K1J0 - Bonifay Tri-Cty, Florida, USA
Distance from station: SSE 32mi, 52km
Updated: Tue, 17-Oct-2017 9:58am CDT
NOT Current
Clear
Clear
 Wind from NE
Wind: NE 13 mph , 20 km/h, Gust: 21 mph , 33 km/h
Temperature: 68°F , 20°C
Dew Point: 50°F , 10°C
Humidity: 53%
Barometer: 30.23 inHg , 1023.7 hPa
Clouds: Clear
Visibility: 10 miles , 16 km
2017/10/17 14:58 K1J0 171458Z AUTO 04011G18KT 10SM CLR 20/10 A3023 RMK AO2 SLP193 T02000100 51017 $
K0J4 - Florala Muni, Alabama, USA
Distance from station: WSW 40mi, 65km
Updated: Tue, 17-Oct-2017 4:58pm CDT
Clear
Clear
 Wind from NE
Wind: NE 8 mph , 13 km/h
Temperature: 72°F , 22°C
Dew Point: 46°F , 8°C
Humidity: 41%
Barometer: 30.17 inHg , 1021.7 hPa
Clouds: Clear
Visibility: 10 miles , 16 km
2017/10/17 21:58 K0J4 172158Z AUTO 04007KT 10SM CLR 22/08 A3017 RMK AO2 SLP212 T02220083
 
K79J - Andalusia/Opp Ar, Alabama, USA
Distance from station: W 41mi, 66km
Updated: Tue, 17-Oct-2017 4:56pm CDT
Clear
Clear
 Wind from ENE
Wind: ENE 9 mph , 15 km/h
Temperature: 73°F , 23°C
Dew Point: 46°F , 8°C
Humidity: 38%
Barometer: 30.15 inHg , 1021 hPa
Clouds: Clear
Visibility: 10 miles , 16 km
2017/10/17 21:56 K79J 172156Z AUTO 06008KT 10SM CLR 23/08 A3015 RMK AO2 SLP206 T02330083
KTOI - Troy, Alabama, USA
Distance from station: NNW 42mi, 67km
Updated: Tue, 17-Oct-2017 4:53pm CDT
Clear
Clear
 Wind from NE
Wind: NE 9 mph , 15 km/h
Temperature: 70°F , 21°C
Dew Point: 46°F , 8°C
Humidity: 43%
Barometer: 30.18 inHg , 1022 hPa
Clouds: Clear
Visibility: 10 miles , 16 km
2017/10/17 21:53 KTOI 172153Z AUTO 04008KT 10SM CLR 21/08 A3018 RMK AO2 SLP218 T02110078
 
KMAI - Marianna, Florida, USA
Distance from station: SE 45mi, 73km
Updated: Tue, 17-Oct-2017 4:53pm CDT
Clear
Clear
 Wind from NE
Wind: NE 14 mph , 22 km/h
Temperature: 75°F , 24°C
Dew Point: 41°F , 5°C
Humidity: 29%
Barometer: 30.13 inHg , 1020.3 hPa
Clouds: Clear
Visibility: 10 miles , 16 km
2017/10/17 21:53 KMAI 172153Z AUTO 05012KT 10SM CLR 24/05 A3013 RMK AO2 SLP201 T02390050
K54J - De Funiak Sprngs, Florida, USA
Distance from station: SSW 48mi, 77km
Updated: Tue, 17-Oct-2017 5:15pm CDT
Clear
Clear
 Wind from NE
Wind: NE 9 mph , 15 km/h
Temperature: 73°F , 23°C
Dew Point: 48°F , 9°C
Humidity: 41%
Barometer: 30.15 inHg , 1021 hPa
Clouds: Clear
Visibility: 10 miles , 16 km
2017/10/17 22:15 K54J 172215Z AUTO 05008KT 10SM CLR 23/09 A3015 RMK AO2 T02250089
 
KBIJ - Blakely Early C, Georgia, USA
Distance from station: E 48mi, 77km
Updated: Tue, 17-Oct-2017 5:15pm CDT
Clear
Clear
 Wind from ENE
Wind: ENE 5 mph , 7 km/h
Temperature: 73°F , 23°C
Dew Point: 39°F , 4°C
Humidity: 29%
Barometer: 30.17 inHg , 1021.7 hPa
Clouds: Clear
Visibility: 10 miles , 16 km
2017/10/17 22:15 KBIJ 172215Z AUTO 06004KT 10SM CLR 23/04 A3017 RMK AO2
KEUF - Eufaula, Alabama, USA
Distance from station: NE 56mi, 90km
Updated: Tue, 17-Oct-2017 4:58pm CDT
Clear
Clear
 Wind from varies
Wind: varies 5 mph , 7 km/h
Temperature: 73°F , 23°C
Dew Point: 43°F , 6°C
Humidity: 33%
Barometer: 30.17 inHg , 1021.7 hPa
Clouds: Clear
Visibility: 10 miles , 16 km
2017/10/17 21:58 KEUF 172158Z AUTO VRB04KT 10SM CLR 23/06 A3017 RMK AO2 SLP214 T02280061
 
KCEW - Crestview, Florida, USA
Distance from station: SW 60mi, 97km
Updated: Tue, 17-Oct-2017 4:53pm CDT
Clear
Clear
 Wind from NE
Wind: NE 12 mph , 19 km/h, Gust: 17 mph , 28 km/h
Temperature: 75°F , 24°C
Dew Point: 50°F , 10°C
Humidity: 41%
Barometer: 30.14 inHg , 1020.7 hPa
Clouds: Clear
Visibility: 10 miles , 16 km
2017/10/17 21:53 KCEW 172153Z AUTO 04010G15KT 10SM CLR 24/10 A3014 RMK AO2 SLP204 T02390100
KPRN - Greenville, Alabama, USA
Distance from station: NW 65mi, 105km
Updated: Tue, 17-Oct-2017 4:56pm CDT
Clear
Clear
 Wind from NE
Wind: NE 10 mph , 17 km/h
Temperature: 70°F , 21°C
Dew Point: 45°F , 7°C
Humidity: 40%
Barometer: 30.17 inHg , 1021.7 hPa
Clouds: Clear
Visibility: 10 miles , 16 km
2017/10/17 21:56 KPRN 172156Z AUTO 05009KT 10SM CLR 21/07 A3017 RMK AO2 SLP215 T02110067
 
KECP - Panama City, Florida, USA
Distance from station: S 67mi, 107km
Updated: Tue, 17-Oct-2017 4:53pm CDT
Clear
Clear
 Wind from NNE
Wind: NNE 13 mph , 20 km/h
Temperature: 75°F , 24°C
Dew Point: 52°F , 11°C
Humidity: 44%
Barometer: 30.11 inHg , 1019.6 hPa
Clouds: Clear
Visibility: 10 miles , 16 km
2017/10/17 21:53 KECP 172153Z 02011KT 10SM CLR 24/11 A3011 RMK AO2 SLP206 T02440111
KEGI - Duke Fld/Eglin, Florida, USA
Distance from station: SW 67mi, 108km
Updated: Tue, 17-Oct-2017 4:55pm CDT
Few Clouds
Few Clouds
 Wind from NE
Wind: NE 8 mph , 13 km/h
Temperature: 75°F , 24°C
Dew Point: 52°F , 11°C
Humidity: 44%
Barometer: 30.12 inHg , 1020 hPa
Clouds: Few Clouds
Visibility: 10 miles , 16 km
Cloud details: Few Clouds 4000 ft
Few Clouds 20000 ft
2017/10/17 21:55 KEGI 172155Z 04007KT 10SM FEW040 FEW200 24/11 A3012 RMK SLP200 T02380105 $
 
KBGE - Bainbridge, Georgia, USA
Distance from station: ESE 68mi, 109km
Updated: Tue, 17-Oct-2017 5:15pm CDT
Clear
Clear
 Wind from ENE
Wind: ENE 14 mph , 22 km/h, Gust: 18 mph , 30 km/h
Temperature: 73°F , 23°C
Dew Point: 46°F , 8°C
Humidity: 38%
Barometer: 30.16 inHg , 1021.3 hPa
Clouds: Clear
Visibility: 10 miles , 16 km
2017/10/17 22:15 KBGE 172215Z AUTO 06012G16KT 10SM CLR 23/08 A3016 RMK AO2
KVPS - Eglin Afb/Valpar, Florida, USA
Distance from station: SW 75mi, 121km
Updated: Tue, 17-Oct-2017 4:55pm CDT
Few Clouds
Few Clouds
 Wind from NNE
Wind: NNE 12 mph , 19 km/h
Temperature: 77°F , 25°C
Dew Point: 52°F , 11°C
Humidity: 42%
Barometer: 30.11 inHg , 1019.6 hPa
Clouds: Few Clouds
Visibility: 10 miles , 16 km
Cloud details: Few Clouds 5000 ft
Few Clouds 20000 ft
2017/10/17 21:55 KVPS 172155Z 03010KT 10SM FEW050 FEW200 25/11 A3011 RMK AO2A SLP202 FU N T02470109 $